| Date | Time | Temp. (oF) | Dew Point (oF) | Rel. Hum. (%) | Press. (in.) | Wind Dir. | Wind Speed (mph) | Hourly Rainfall (in.) |
|
|---|---|---|---|---|---|---|---|---|---|
| 1 | 11/01 | 00:00 | 44 | 31 | 61 | 30.29 | SE | 0 | 0.00 |
| 2 | 10/31 | 23:00 | 46 | 31 | 57 | 30.29 | WSW | 0 | 0.00 |
| 3 | 10/31 | 22:00 | 51 | 29 | 44 | 30.30 | SW | 3 | 0.00 |
| 4 | 10/31 | 21:00 | 53 | 27 | 38 | 30.30 | SW | 3 | 0.00 |
| 5 | 10/31 | 20:00 | 55 | 28 | 36 | 30.30 | SW | 0 | 0.00 |
| 6 | 10/31 | 19:00 | 58 | 28 | 32 | 30.30 | SSW | 0 | 0.00 |
| 7 | 10/31 | 18:00 | 61 | 27 | 28 | 30.29 | SW | 0 | 0.00 |
| 8 | 10/31 | 17:00 | 65 | 28 | 26 | 30.29 | WNW | 4 | 0.00 |
| 9 | 10/31 | 16:00 | 66 | 27 | 24 | 30.30 | SW | 4 | 0.00 |
| 10 | 10/31 | 15:00 | 65 | 27 | 25 | 30.33 | SSW | 5 | 0.00 |
| 11 | 10/31 | 14:00 | 63 | 29 | 28 | 30.37 | W | 3 | 0.00 |
| 12 | 10/31 | 13:00 | 60 | 29 | 31 | 30.41 | NW | 6 | 0.00 |
| 13 | 10/31 | 12:00 | 57 | 34 | 42 | 30.45 | SSW | 4 | 0.00 |
| 14 | 10/31 | 11:00 | 51 | 37 | 59 | 30.47 | NW | 4 | 0.00 |
| 15 | 10/31 | 10:00 | 44 | 36 | 76 | 30.49 | S | 0 | 0.00 |
| 16 | 10/31 | 09:00 | 37 | 36 | 97 | 30.51 | NE | 1 | 0.00 |
| 17 | 10/31 | 08:00 | 29 | 28 | 100 | 30.51 | NW | 0 | 0.00 |
| 18 | 10/31 | 07:00 | 29 | 28 | 100 | 30.51 | NW | 0 | 0.00 |
| 19 | 10/31 | 06:00 | 30 | 29 | 99 | 30.51 | NW | 0 | 0.00 |
| 20 | 10/31 | 05:00 | 30 | 29 | 98 | 30.50 | WSW | 0 | 0.00 |
| 21 | 10/31 | 04:00 | 30 | 29 | 97 | 30.50 | SW | 0 | 0.00 |
| 22 | 10/31 | 03:00 | 31 | 29 | 95 | 30.50 | SW | 0 | 0.00 |
| 23 | 10/31 | 02:00 | 32 | 30 | 93 | 30.49 | SW | 0 | 0.00 |
| 24 | 10/31 | 01:00 | 33 | 30 | 91 | 30.50 | SW | 0 | 0.00 |